createdAt,value
2019-05-09T00:00:14.262Z,1.50
2019-05-09T00:01:14.454Z,1.60
2019-05-09T00:02:14.051Z,1.60
2019-05-09T00:03:14.053Z,1.60
2019-05-09T00:04:14.113Z,1.70
2019-05-09T00:05:14.026Z,1.90
2019-05-09T00:06:14.080Z,1.50
2019-05-09T00:07:14.139Z,1.70
2019-05-09T00:08:14.166Z,1.80
2019-05-09T00:09:14.024Z,1.50
2019-05-09T00:10:14.276Z,1.60
2019-05-09T00:11:14.697Z,1.70
2019-05-09T00:12:14.404Z,1.60
2019-05-09T00:13:13.991Z,1.80
2019-05-09T00:14:13.935Z,1.60
2019-05-09T00:15:13.915Z,2.10
2019-05-09T00:16:14.701Z,1.90
2019-05-09T00:17:14.236Z,1.90
2019-05-09T00:18:14.384Z,1.70
2019-05-09T00:19:13.909Z,1.90
2019-05-09T00:20:13.866Z,1.70
2019-05-09T00:21:13.858Z,1.70
2019-05-09T00:22:13.956Z,2.00
2019-05-09T00:23:13.826Z,2.00
2019-05-09T00:24:14.056Z,2.10
2019-05-09T00:25:13.858Z,2.00
2019-05-09T00:26:13.804Z,2.10
2019-05-09T00:27:14.282Z,2.00
2019-05-09T00:28:27.576Z,2.00
2019-05-09T00:29:14.086Z,1.80
2019-05-09T00:30:14.011Z,1.90
2019-05-09T00:31:13.789Z,1.70
2019-05-09T00:32:14.386Z,2.00
2019-05-09T00:33:14.315Z,2.00
2019-05-09T00:34:14.371Z,1.60
2019-05-09T00:35:14.219Z,2.20
2019-05-09T00:36:14.115Z,1.80
2019-05-09T00:37:13.693Z,1.80
2019-05-09T00:38:13.666Z,1.70
2019-05-09T00:39:13.658Z,1.70
2019-05-09T00:40:13.651Z,1.70
2019-05-09T00:41:14.076Z,1.70
2019-05-09T00:42:13.886Z,1.70
2019-05-09T00:43:14.383Z,2.10
2019-05-09T00:44:13.915Z,1.70
2019-05-09T00:45:13.589Z,2.00
2019-05-09T00:46:14.130Z,1.50
2019-05-09T00:47:13.620Z,1.60
2019-05-09T00:48:14.103Z,1.70
2019-05-09T00:49:14.105Z,2.00
2019-05-09T00:50:13.547Z,2.10
2019-05-09T00:51:14.098Z,1.90
2019-05-09T00:52:14.074Z,2.00
2019-05-09T00:53:13.856Z,1.90
2019-05-09T00:54:13.642Z,2.10
2019-05-09T00:55:13.480Z,2.20
2019-05-09T00:56:13.624Z,2.00
2019-05-09T00:57:13.827Z,1.90
2019-05-09T00:58:13.685Z,1.90
2019-05-09T00:59:25.463Z,2.00
2019-05-09T01:00:14.659Z,1.90
2019-05-09T01:01:13.426Z,2.00
2019-05-09T01:02:13.414Z,1.90
2019-05-09T01:03:14.152Z,2.20
2019-05-09T01:04:13.783Z,2.00
2019-05-09T01:05:13.451Z,2.30
2019-05-09T01:06:13.585Z,1.80
2019-05-09T01:07:13.933Z,2.30
2019-05-09T01:08:13.813Z,2.30
2019-05-09T01:09:13.833Z,2.00
2019-05-09T01:10:13.523Z,2.20
2019-05-09T01:11:15.560Z,1.70
2019-05-09T01:12:14.377Z,1.80
2019-05-09T01:13:14.242Z,2.00
2019-05-09T01:14:14.227Z,2.10
2019-05-09T01:15:13.476Z,1.90
2019-05-09T01:16:13.527Z,1.80
2019-05-09T01:17:13.764Z,1.80
2019-05-09T01:18:13.393Z,2.10
2019-05-09T01:19:14.104Z,1.90
2019-05-09T01:20:14.695Z,1.90
2019-05-09T01:21:13.571Z,2.10
2019-05-09T01:22:13.344Z,2.10
2019-05-09T01:23:14.251Z,2.30
2019-05-09T01:24:13.869Z,2.00
2019-05-09T01:25:13.498Z,2.30
2019-05-09T01:26:13.389Z,2.10
2019-05-09T01:27:14.212Z,2.30
2019-05-09T01:28:13.996Z,1.90
2019-05-09T01:29:13.719Z,2.30
2019-05-09T01:30:25.458Z,1.80
2019-05-09T01:31:13.402Z,2.20
2019-05-09T01:32:14.408Z,1.80
2019-05-09T01:33:13.671Z,2.20
2019-05-09T01:34:13.398Z,2.70
2019-05-09T01:35:13.269Z,1.90
2019-05-09T01:36:14.422Z,1.90
2019-05-09T01:37:14.089Z,2.00
2019-05-09T01:38:14.186Z,2.20
2019-05-09T01:39:13.820Z,2.10
2019-05-09T01:40:13.312Z,1.70
2019-05-09T01:41:27.253Z,2.30
2019-05-09T01:42:13.985Z,2.00
2019-05-09T01:43:14.044Z,2.00
2019-05-09T01:44:13.477Z,2.10
2019-05-09T01:45:14.145Z,2.30
2019-05-09T01:46:14.454Z,2.30
2019-05-09T01:47:14.088Z,2.00
2019-05-09T01:48:14.007Z,1.90
2019-05-09T01:49:13.806Z,2.20
2019-05-09T01:50:14.034Z,2.40
2019-05-09T01:51:13.872Z,1.80
2019-05-09T01:52:13.764Z,2.20
2019-05-09T01:53:13.480Z,2.10
2019-05-09T01:54:13.312Z,2.60
2019-05-09T01:55:14.188Z,2.50
2019-05-09T01:56:13.976Z,2.10
2019-05-09T01:57:13.838Z,2.20
2019-05-09T01:58:13.853Z,2.40
2019-05-09T01:59:13.683Z,2.50
2019-05-09T02:00:13.301Z,2.50
2019-05-09T02:01:25.650Z,2.00
2019-05-09T02:02:14.187Z,2.30
2019-05-09T02:03:13.944Z,2.60
2019-05-09T02:04:13.734Z,2.60
2019-05-09T02:05:13.499Z,2.20
2019-05-09T02:06:13.672Z,2.60
2019-05-09T02:07:13.532Z,2.30
2019-05-09T02:08:14.276Z,2.50
2019-05-09T02:09:14.066Z,2.20
2019-05-09T02:10:13.905Z,2.30
2019-05-09T02:11:13.381Z,2.30
2019-05-09T02:12:14.202Z,2.10
2019-05-09T02:13:13.690Z,1.90
2019-05-09T02:14:13.487Z,2.40
2019-05-09T02:15:13.134Z,2.10
2019-05-09T02:16:14.144Z,2.20
2019-05-09T02:17:13.955Z,2.10
2019-05-09T02:18:13.769Z,2.50
2019-05-09T02:19:13.575Z,2.50
2019-05-09T02:20:13.623Z,2.60
2019-05-09T02:21:14.531Z,1.80
2019-05-09T02:22:13.070Z,2.30
2019-05-09T02:23:14.004Z,2.50
2019-05-09T02:24:14.124Z,1.90
2019-05-09T02:25:13.652Z,2.10
2019-05-09T02:26:13.573Z,2.10
2019-05-09T02:27:13.263Z,2.20
2019-05-09T02:28:14.144Z,1.80
2019-05-09T02:29:13.820Z,2.30
2019-05-09T02:30:15.261Z,2.30
2019-05-09T02:31:15.769Z,2.40
2019-05-09T02:32:25.326Z,2.30
2019-05-09T02:33:14.568Z,1.70
2019-05-09T02:34:14.860Z,1.80
2019-05-09T02:35:12.430Z,2.10
2019-05-09T02:36:12.435Z,1.90
2019-05-09T02:37:12.508Z,2.30
2019-05-09T02:38:12.401Z,1.60
2019-05-09T02:39:12.385Z,2.10
2019-05-09T02:40:12.362Z,2.20
2019-05-09T02:41:12.361Z,2.50
2019-05-09T02:42:14.274Z,2.00
2019-05-09T02:43:12.326Z,2.00
2019-05-09T02:44:12.317Z,2.40
2019-05-09T02:45:12.313Z,2.60
2019-05-09T02:46:12.305Z,2.10
2019-05-09T02:47:12.287Z,2.10
2019-05-09T02:48:12.319Z,2.60
2019-05-09T02:49:12.993Z,2.30
2019-05-09T02:50:12.253Z,2.40
2019-05-09T02:51:12.246Z,2.40
2019-05-09T02:52:12.232Z,2.50
2019-05-09T02:53:12.230Z,2.70
2019-05-09T02:54:12.263Z,1.90
2019-05-09T02:55:12.199Z,2.40
2019-05-09T02:56:12.194Z,2.40
2019-05-09T02:57:12.189Z,2.30
2019-05-09T02:58:12.342Z,2.00
2019-05-09T02:59:12.176Z,2.00
2019-05-09T03:00:12.194Z,1.70
2019-05-09T03:01:12.140Z,2.20
2019-05-09T03:02:12.131Z,2.00
2019-05-09T03:03:23.580Z,2.00
2019-05-09T03:04:12.113Z,2.00
2019-05-09T03:05:12.129Z,2.20
2019-05-09T03:06:12.082Z,2.00
2019-05-09T03:07:12.069Z,1.90
2019-05-09T03:08:12.086Z,2.10
2019-05-09T03:09:12.050Z,2.00
2019-05-09T03:10:12.093Z,1.60
2019-05-09T03:11:12.077Z,1.90
2019-05-09T03:12:26.018Z,2.10
2019-05-09T03:13:13.004Z,1.70
2019-05-09T03:14:12.015Z,1.70
2019-05-09T03:15:11.981Z,2.00
2019-05-09T03:16:11.966Z,1.90
2019-05-09T03:17:12.000Z,1.60
2019-05-09T03:18:11.952Z,1.70
2019-05-09T03:19:11.935Z,1.80
2019-05-09T03:20:11.930Z,1.40
2019-05-09T03:21:11.962Z,1.60
2019-05-09T03:22:11.913Z,2.00
2019-05-09T03:23:11.938Z,1.90
2019-05-09T03:24:11.876Z,1.70
2019-05-09T03:25:11.906Z,1.50
2019-05-09T03:26:11.860Z,1.30
2019-05-09T03:27:11.847Z,1.30
2019-05-09T03:28:11.838Z,1.40
2019-05-09T03:29:11.866Z,1.40
2019-05-09T03:30:12.487Z,1.70
2019-05-09T03:31:11.810Z,1.40
2019-05-09T03:32:12.513Z,1.30
2019-05-09T03:33:11.780Z,1.40
2019-05-09T03:34:23.591Z,1.60
2019-05-09T03:35:11.758Z,1.40
2019-05-09T03:36:11.748Z,1.50
2019-05-09T03:37:11.732Z,1.30
2019-05-09T03:38:11.721Z,1.70
2019-05-09T03:39:11.714Z,1.40
2019-05-09T03:40:11.753Z,1.80
2019-05-09T03:41:11.692Z,1.30
2019-05-09T03:42:11.679Z,1.50
2019-05-09T03:43:11.694Z,1.90
2019-05-09T03:44:11.670Z,1.40
2019-05-09T03:45:11.653Z,1.30
2019-05-09T03:46:11.648Z,1.70
2019-05-09T03:47:11.626Z,1.30
2019-05-09T03:48:11.620Z,1.70
2019-05-09T03:49:11.607Z,2.30
2019-05-09T03:50:11.718Z,2.90
2019-05-09T03:51:11.622Z,3.10
2019-05-09T03:52:11.569Z,2.40
2019-05-09T03:53:11.558Z,2.40
2019-05-09T03:54:11.583Z,2.30
2019-05-09T03:55:11.538Z,1.80
2019-05-09T03:56:11.540Z,1.50
2019-05-09T03:57:11.524Z,1.60
2019-05-09T03:58:11.503Z,2.30
2019-05-09T03:59:11.494Z,2.10
2019-05-09T04:00:11.483Z,2.10
2019-05-09T04:01:11.479Z,1.70
2019-05-09T04:02:11.516Z,1.50
2019-05-09T04:03:11.456Z,1.60
2019-05-09T04:04:11.447Z,1.50
2019-05-09T04:05:24.638Z,1.60
2019-05-09T04:06:11.421Z,1.50
2019-05-09T04:07:11.415Z,1.60
2019-05-09T04:08:11.419Z,1.50
2019-05-09T04:09:11.413Z,1.30
2019-05-09T04:10:11.376Z,1.30
2019-05-09T04:11:11.364Z,1.40
2019-05-09T04:12:11.352Z,1.50
2019-05-09T04:13:11.389Z,1.80
2019-05-09T04:14:11.368Z,1.50
2019-05-09T04:15:11.327Z,1.70
2019-05-09T04:16:11.309Z,1.70
2019-05-09T04:17:11.312Z,1.80
2019-05-09T04:18:11.298Z,1.70
2019-05-09T04:19:11.275Z,1.50
2019-05-09T04:20:11.598Z,1.50
2019-05-09T04:21:11.279Z,1.70
2019-05-09T04:22:11.245Z,1.20
2019-05-09T04:23:11.232Z,1.70
2019-05-09T04:24:11.239Z,1.50
2019-05-09T04:25:11.247Z,1.70
2019-05-09T04:26:11.207Z,1.80
2019-05-09T04:27:11.189Z,1.60
2019-05-09T04:28:11.189Z,1.70
2019-05-09T04:29:11.182Z,1.70
2019-05-09T04:30:11.161Z,1.70
2019-05-09T04:31:11.264Z,1.30
2019-05-09T04:32:11.138Z,1.60
2019-05-09T04:33:11.143Z,1.80
2019-05-09T04:34:11.122Z,1.30
2019-05-09T04:35:11.129Z,1.50
2019-05-09T04:36:24.167Z,1.50
2019-05-09T04:37:12.304Z,1.40
2019-05-09T04:38:11.077Z,1.50
2019-05-09T04:39:12.929Z,1.60
2019-05-09T04:40:12.051Z,2.10
2019-05-09T04:41:11.045Z,1.70
2019-05-09T04:42:11.116Z,1.30
2019-05-09T04:43:18.344Z,1.80
2019-05-09T04:44:17.159Z,1.60
2019-05-09T04:45:12.000Z,1.70
2019-05-09T04:46:12.921Z,2.00
2019-05-09T04:47:12.012Z,1.60
2019-05-09T04:48:13.149Z,1.90
2019-05-09T04:49:11.952Z,2.00
2019-05-09T04:50:15.445Z,1.80
2019-05-09T04:51:11.967Z,1.40
2019-05-09T04:52:10.925Z,1.70
2019-05-09T04:53:10.918Z,1.70
2019-05-09T04:54:10.988Z,1.60
2019-05-09T04:55:10.890Z,1.50
2019-05-09T04:56:10.875Z,1.40
2019-05-09T04:57:10.864Z,1.50
2019-05-09T04:58:10.862Z,1.30
2019-05-09T04:59:10.847Z,1.50
2019-05-09T05:00:10.871Z,1.60
2019-05-09T05:01:10.872Z,1.50
2019-05-09T05:02:10.815Z,1.40
2019-05-09T05:03:10.913Z,1.10
2019-05-09T05:04:10.793Z,1.10
2019-05-09T05:05:10.777Z,1.20
2019-05-09T05:06:10.779Z,1.20
2019-05-09T05:07:23.701Z,1.40
2019-05-09T05:08:11.639Z,1.30
2019-05-09T05:09:10.739Z,1.50
2019-05-09T05:10:10.728Z,1.00
2019-05-09T05:11:10.746Z,1.30
2019-05-09T05:12:10.714Z,1.40
2019-05-09T05:13:23.266Z,1.50
2019-05-09T05:14:11.691Z,1.40
2019-05-09T05:15:10.679Z,1.30
2019-05-09T05:16:10.680Z,1.40
2019-05-09T05:17:11.515Z,1.10
2019-05-09T05:18:10.635Z,1.30
2019-05-09T05:19:10.713Z,1.10
2019-05-09T05:20:10.616Z,1.30
2019-05-09T05:21:10.604Z,1.00
2019-05-09T05:22:10.636Z,1.40
2019-05-09T05:23:10.594Z,1.30
2019-05-09T05:24:10.578Z,1.20
2019-05-09T05:25:10.563Z,1.10
2019-05-09T05:26:10.627Z,1.40
2019-05-09T05:27:10.561Z,1.30
2019-05-09T05:28:10.585Z,1.40
2019-05-09T05:29:10.522Z,1.60
2019-05-09T05:30:10.517Z,1.40
2019-05-09T05:31:10.571Z,1.50
2019-05-09T05:32:10.507Z,1.60
2019-05-09T05:33:10.479Z,1.70
2019-05-09T05:34:10.486Z,1.80
2019-05-09T05:35:10.456Z,1.20
2019-05-09T05:36:10.444Z,1.40
2019-05-09T05:37:10.437Z,1.30
2019-05-09T05:38:23.061Z,1.00
2019-05-09T05:39:10.409Z,1.00
2019-05-09T05:40:10.451Z,1.40
2019-05-09T05:41:10.390Z,0.90
2019-05-09T05:42:10.382Z,1.20
2019-05-09T05:43:10.374Z,1.00
2019-05-09T05:44:10.441Z,1.10
2019-05-09T05:45:10.350Z,1.20
2019-05-09T05:46:10.347Z,1.20
2019-05-09T05:47:10.399Z,0.90
2019-05-09T05:48:10.353Z,1.00
2019-05-09T05:49:10.311Z,1.10
2019-05-09T05:50:10.323Z,0.90
2019-05-09T05:51:10.340Z,1.00
2019-05-09T05:52:10.377Z,1.40
2019-05-09T05:53:10.291Z,1.20
2019-05-09T05:54:10.258Z,1.10
2019-05-09T05:55:10.258Z,1.20
2019-05-09T05:56:10.243Z,1.30
2019-05-09T05:57:10.305Z,1.40
2019-05-09T05:58:10.216Z,1.30
2019-05-09T05:59:10.205Z,1.30
2019-05-09T06:00:10.224Z,1.70
2019-05-09T06:01:10.185Z,1.70
2019-05-09T06:02:34.120Z,1.80
2019-05-09T06:03:10.167Z,1.60
2019-05-09T06:04:10.145Z,1.90
2019-05-09T06:05:11.086Z,1.70
2019-05-09T06:06:10.132Z,2.00
2019-05-09T06:07:10.117Z,2.10
2019-05-09T06:08:10.149Z,1.90
2019-05-09T06:09:24.361Z,2.30
2019-05-09T06:10:10.765Z,2.10
2019-05-09T06:11:12.186Z,2.40
2019-05-09T06:12:10.112Z,2.20
2019-05-09T06:13:10.088Z,2.60
2019-05-09T06:14:11.851Z,2.50
2019-05-09T06:15:10.084Z,2.80
2019-05-09T06:16:10.034Z,2.20
2019-05-09T06:17:10.033Z,2.60
2019-05-09T06:18:09.996Z,2.40
2019-05-09T06:19:09.985Z,2.60
2019-05-09T06:20:10.019Z,2.20
2019-05-09T06:21:09.955Z,2.40
2019-05-09T06:22:09.953Z,2.70
2019-05-09T06:23:09.940Z,2.40
2019-05-09T06:24:09.928Z,3.10
2019-05-09T06:25:10.260Z,2.70
2019-05-09T06:26:10.457Z,3.20
2019-05-09T06:27:10.583Z,3.00
2019-05-09T06:28:09.881Z,3.20
2019-05-09T06:29:09.887Z,3.30
2019-05-09T06:30:10.000Z,3.30
2019-05-09T06:31:09.862Z,3.50
2019-05-09T06:32:09.909Z,3.40
2019-05-09T06:33:09.844Z,3.60
2019-05-09T06:34:09.817Z,3.80
2019-05-09T06:35:09.817Z,2.60
2019-05-09T06:36:09.812Z,2.60
2019-05-09T06:37:09.803Z,2.20
2019-05-09T06:38:09.908Z,2.20
2019-05-09T06:39:09.783Z,2.20
2019-05-09T06:40:21.965Z,2.00
2019-05-09T06:41:12.144Z,2.30
2019-05-09T06:42:09.770Z,1.90
2019-05-09T06:43:09.755Z,2.00
2019-05-09T06:44:16.445Z,1.80
2019-05-09T06:45:10.775Z,1.50
2019-05-09T06:46:10.141Z,1.70
2019-05-09T06:47:10.754Z,1.50
2019-05-09T06:48:09.892Z,1.50
2019-05-09T06:49:26.792Z,1.50
2019-05-09T06:50:11.032Z,1.70
2019-05-09T06:51:27.686Z,1.50
2019-05-09T06:52:10.069Z,1.50
2019-05-09T06:54:19.211Z,2.20
2019-05-09T06:55:19.299Z,1.50
2019-05-09T06:56:19.162Z,1.30
2019-05-09T06:57:19.163Z,1.40
2019-05-09T06:58:19.171Z,1.40
2019-05-09T06:59:19.279Z,1.70
2019-05-09T07:00:19.114Z,1.70
2019-05-09T07:01:19.112Z,1.70
2019-05-09T07:02:19.101Z,1.30
2019-05-09T07:03:19.079Z,1.70
2019-05-09T07:04:19.097Z,1.80
2019-05-09T07:05:19.058Z,1.60
2019-05-09T07:06:19.090Z,1.80
2019-05-09T07:07:19.085Z,1.90
2019-05-09T07:08:19.023Z,1.40
2019-05-09T07:09:19.015Z,1.50
2019-05-09T07:10:18.999Z,1.60
2019-05-09T07:11:19.332Z,1.70
2019-05-09T07:12:18.985Z,1.70
2019-05-09T07:13:18.967Z,1.20
2019-05-09T07:14:28.671Z,1.40
2019-05-09T07:15:19.946Z,1.30
2019-05-09T07:16:18.955Z,1.20
2019-05-09T07:17:18.944Z,1.20
2019-05-09T07:18:18.910Z,1.40
2019-05-09T07:19:18.908Z,1.60
2019-05-09T07:20:18.897Z,1.50
2019-05-09T07:21:19.166Z,1.50
2019-05-09T07:22:18.866Z,1.70
2019-05-09T07:23:18.864Z,1.20
2019-05-09T07:24:28.613Z,1.30
2019-05-09T07:25:18.840Z,1.60
2019-05-09T07:26:18.821Z,1.20
2019-05-09T07:27:18.812Z,1.60
2019-05-09T07:28:18.836Z,1.30
2019-05-09T07:29:18.789Z,1.50
2019-05-09T07:30:18.775Z,1.50
2019-05-09T07:31:18.763Z,1.60
2019-05-09T07:32:19.587Z,1.30
2019-05-09T07:33:19.467Z,1.80
2019-05-09T07:34:18.758Z,1.40
2019-05-09T07:35:18.817Z,1.30
2019-05-09T07:36:19.043Z,1.10
2019-05-09T07:37:18.717Z,1.60
2019-05-09T07:38:18.704Z,1.20
2019-05-09T07:39:18.721Z,1.30
2019-05-09T07:40:18.670Z,1.60
2019-05-09T07:41:18.667Z,1.50
2019-05-09T07:42:18.645Z,1.20
2019-05-09T07:43:18.643Z,1.50
2019-05-09T07:44:18.624Z,1.50
2019-05-09T07:45:18.628Z,1.40
2019-05-09T07:46:18.598Z,1.30
2019-05-09T07:47:18.647Z,1.50
2019-05-09T07:48:18.582Z,1.60
2019-05-09T07:49:18.578Z,1.60
2019-05-09T07:50:19.158Z,1.60
2019-05-09T07:51:18.589Z,1.30
2019-05-09T07:52:18.748Z,1.20
2019-05-09T07:53:18.561Z,1.00
2019-05-09T07:54:25.098Z,1.20
2019-05-09T07:56:33.002Z,1.40
2019-05-09T07:57:32.709Z,1.20
2019-05-09T07:58:32.682Z,1.30
2019-05-09T07:59:33.444Z,1.40
2019-05-09T08:00:32.743Z,1.50
2019-05-09T08:01:32.675Z,1.40
2019-05-09T08:02:32.678Z,1.40
2019-05-09T08:03:32.660Z,1.30
2019-05-09T08:04:32.690Z,1.40
2019-05-09T08:05:32.658Z,1.20
2019-05-09T08:06:32.588Z,1.30
2019-05-09T08:07:33.188Z,1.40
2019-05-09T08:08:32.735Z,1.90
2019-05-09T08:09:32.548Z,1.30
2019-05-09T08:10:33.412Z,2.20
2019-05-09T08:11:32.732Z,2.30
2019-05-09T08:12:32.568Z,2.70
2019-05-09T08:13:32.534Z,2.90
2019-05-09T08:14:32.501Z,2.60
2019-05-09T08:15:32.492Z,2.70
2019-05-09T08:16:32.480Z,2.30
2019-05-09T08:17:32.457Z,2.20
2019-05-09T08:18:32.466Z,2.60
2019-05-09T08:19:32.641Z,2.50
2019-05-09T08:20:32.426Z,2.30
2019-05-09T08:21:32.453Z,2.00
2019-05-09T08:22:32.787Z,2.40
2019-05-09T08:23:32.398Z,2.60
2019-05-09T08:24:32.394Z,2.10
2019-05-09T08:25:32.378Z,2.80
2019-05-09T08:26:47.807Z,2.20
2019-05-09T08:27:32.431Z,2.40
2019-05-09T08:28:32.341Z,2.00
2019-05-09T08:29:32.331Z,2.10
2019-05-09T08:30:36.136Z,1.70
2019-05-09T08:31:33.320Z,1.30
2019-05-09T08:32:32.338Z,1.50
2019-05-09T08:33:32.296Z,1.60
2019-05-09T08:34:32.286Z,1.70
2019-05-09T08:35:32.268Z,1.60
2019-05-09T08:36:32.251Z,1.50
2019-05-09T08:37:32.262Z,1.40
2019-05-09T08:38:32.224Z,1.20
2019-05-09T08:39:32.300Z,1.30
2019-05-09T08:40:32.235Z,1.10
2019-05-09T08:41:32.243Z,1.00
2019-05-09T08:42:32.197Z,1.30
2019-05-09T08:43:32.200Z,1.30
2019-05-09T08:44:32.202Z,1.30
2019-05-09T08:45:32.411Z,1.50
2019-05-09T08:46:32.226Z,1.10
2019-05-09T08:47:32.139Z,1.40
2019-05-09T08:48:32.489Z,1.20
2019-05-09T08:49:32.107Z,1.40
2019-05-09T08:50:32.112Z,1.30
2019-05-09T08:51:37.006Z,1.40
2019-05-09T08:52:33.080Z,1.30
2019-05-09T08:53:32.063Z,1.00
2019-05-09T08:54:32.091Z,1.20
2019-05-09T08:55:32.040Z,1.20
2019-05-09T08:56:32.032Z,1.30
2019-05-09T08:57:44.594Z,1.40
2019-05-09T08:58:32.988Z,1.10
2019-05-09T08:59:31.993Z,1.20
2019-05-09T09:00:32.027Z,1.40
2019-05-09T09:01:49.649Z,1.10
2019-05-09T09:02:32.994Z,1.60
2019-05-09T09:03:32.009Z,1.10
2019-05-09T09:04:31.937Z,1.50
2019-05-09T09:05:32.065Z,1.50
2019-05-09T09:06:32.025Z,1.20
2019-05-09T09:07:31.907Z,1.20
2019-05-09T09:08:32.258Z,1.10
2019-05-09T09:09:31.924Z,1.40
2019-05-09T09:10:31.878Z,1.30
2019-05-09T09:11:31.885Z,0.90
2019-05-09T09:12:34.524Z,1.30
2019-05-09T09:13:31.878Z,1.40
2019-05-09T09:14:31.924Z,1.30
2019-05-09T09:15:56.083Z,1.80
2019-05-09T09:16:32.824Z,1.50
2019-05-09T09:17:31.892Z,1.80
2019-05-09T09:18:31.787Z,2.00
2019-05-09T09:19:31.874Z,2.10
2019-05-09T09:20:31.836Z,1.60
2019-05-09T09:21:31.782Z,1.80
2019-05-09T09:22:31.756Z,2.10
2019-05-09T09:23:43.242Z,1.50
2019-05-09T09:24:32.729Z,1.40
2019-05-09T09:25:31.722Z,1.20
2019-05-09T09:26:31.719Z,1.30
2019-05-09T09:27:31.716Z,1.40
2019-05-09T09:28:44.775Z,1.10
2019-05-09T09:29:31.670Z,1.10
2019-05-09T09:30:31.663Z,1.20
2019-05-09T09:31:31.643Z,1.30
2019-05-09T09:32:31.767Z,1.50
2019-05-09T09:33:31.709Z,1.10
2019-05-09T09:34:31.617Z,1.20
2019-05-09T09:35:31.612Z,1.30
2019-05-09T09:36:31.593Z,1.30
2019-05-09T09:37:45.043Z,1.10
2019-05-09T09:38:32.648Z,1.20
2019-05-09T09:39:31.557Z,1.30
2019-05-09T09:40:31.547Z,1.30
2019-05-09T09:41:31.539Z,1.40
2019-05-09T09:42:31.701Z,1.10
2019-05-09T09:43:31.508Z,1.40
2019-05-09T09:44:32.436Z,1.30
2019-05-09T09:45:31.504Z,1.50
2019-05-09T09:46:31.661Z,1.50
2019-05-09T09:47:31.526Z,1.90
2019-05-09T09:48:31.460Z,1.20
2019-05-09T09:49:31.482Z,1.70
2019-05-09T09:50:31.443Z,1.70
2019-05-09T09:51:31.429Z,1.50
2019-05-09T09:52:34.266Z,1.70
2019-05-09T09:53:31.422Z,1.50
2019-05-09T09:54:31.429Z,1.50
2019-05-09T09:55:31.451Z,1.50
2019-05-09T09:56:31.411Z,1.80
2019-05-09T09:57:31.354Z,1.60
2019-05-09T09:58:31.346Z,1.40
2019-05-09T09:59:44.385Z,1.60
2019-05-09T10:00:31.351Z,1.50
2019-05-09T10:01:31.313Z,1.60
2019-05-09T10:02:31.323Z,1.40
2019-05-09T10:03:31.306Z,1.50
2019-05-09T10:04:31.293Z,1.40
2019-05-09T10:05:31.321Z,1.90
2019-05-09T10:06:31.379Z,1.60
2019-05-09T10:07:31.244Z,1.60
2019-05-09T10:08:31.234Z,1.80
2019-05-09T10:09:31.227Z,1.90
2019-05-09T10:10:31.243Z,2.40
2019-05-09T10:11:32.200Z,2.30
2019-05-09T10:12:31.450Z,2.30
2019-05-09T10:13:32.010Z,1.60
2019-05-09T10:14:31.168Z,1.40
2019-05-09T10:15:31.162Z,1.70
2019-05-09T10:16:32.688Z,1.60
2019-05-09T10:17:31.208Z,1.40
2019-05-09T10:18:39.646Z,1.40
2019-05-09T10:19:31.110Z,1.40
2019-05-09T10:20:31.126Z,1.60
2019-05-09T10:21:31.092Z,1.40
2019-05-09T10:22:31.157Z,1.30
2019-05-09T10:23:31.072Z,1.50
2019-05-09T10:24:31.061Z,1.20
2019-05-09T10:25:31.042Z,1.60
2019-05-09T10:26:31.037Z,1.40
2019-05-09T10:27:31.343Z,1.70
2019-05-09T10:28:31.126Z,1.50
2019-05-09T10:29:31.016Z,1.70
2019-05-09T10:30:30.988Z,1.90
2019-05-09T10:31:30.978Z,1.30
2019-05-09T10:32:31.036Z,1.70
2019-05-09T10:33:30.973Z,1.50
2019-05-09T10:34:31.072Z,1.40
2019-05-09T10:35:30.934Z,1.20
2019-05-09T10:36:30.925Z,1.30
2019-05-09T10:37:30.959Z,1.80
2019-05-09T10:38:30.920Z,1.30
2019-05-09T10:39:30.894Z,1.30
2019-05-09T10:40:31.107Z,1.70
2019-05-09T10:41:30.899Z,1.40
2019-05-09T10:42:30.920Z,1.10
2019-05-09T10:43:37.955Z,1.30
2019-05-09T10:44:31.926Z,1.70
2019-05-09T10:45:31.625Z,1.40
2019-05-09T10:46:48.459Z,1.70
2019-05-09T10:47:32.036Z,1.20
2019-05-09T10:48:30.811Z,1.60
2019-05-09T10:49:43.668Z,1.20
2019-05-09T10:50:33.750Z,1.20
2019-05-09T10:51:30.757Z,1.50
2019-05-09T10:52:30.783Z,1.50
2019-05-09T10:53:30.733Z,1.30
2019-05-09T10:54:30.724Z,1.30
2019-05-09T10:55:30.733Z,1.60
2019-05-09T10:56:30.731Z,1.20
2019-05-09T10:57:32.324Z,1.40
2019-05-09T10:58:30.684Z,1.60
2019-05-09T10:59:30.838Z,1.40
2019-05-09T11:00:30.662Z,1.40
2019-05-09T11:01:30.655Z,1.50
2019-05-09T11:02:30.646Z,1.70
2019-05-09T11:03:30.621Z,1.80
2019-05-09T11:04:30.717Z,1.50
2019-05-09T11:05:30.601Z,1.30
2019-05-09T11:06:30.604Z,1.30
2019-05-09T11:07:30.585Z,1.60
2019-05-09T11:08:30.690Z,1.30
2019-05-09T11:09:30.588Z,1.10
2019-05-09T11:10:32.825Z,1.30
2019-05-09T11:11:30.617Z,1.50
2019-05-09T11:12:30.530Z,1.50
2019-05-09T11:13:30.525Z,1.30
2019-05-09T11:14:36.835Z,1.30
2019-05-09T11:15:31.496Z,1.30
2019-05-09T11:16:41.957Z,1.60
2019-05-09T11:17:31.465Z,1.10
2019-05-09T11:18:30.457Z,1.70
2019-05-09T11:19:30.450Z,1.30
2019-05-09T11:20:40.825Z,1.10
2019-05-09T11:21:30.422Z,1.50
2019-05-09T11:22:30.425Z,1.40
2019-05-09T11:23:30.405Z,1.40
2019-05-09T11:24:41.742Z,1.30
2019-05-09T11:25:31.382Z,1.30
2019-05-09T11:26:30.375Z,1.50
2019-05-09T11:27:30.358Z,1.70
2019-05-09T11:28:30.360Z,1.80
2019-05-09T11:29:30.336Z,1.50
2019-05-09T11:30:30.365Z,1.70
2019-05-09T11:31:30.327Z,1.40
2019-05-09T11:32:30.304Z,1.50
2019-05-09T11:33:30.312Z,1.20
2019-05-09T11:34:30.284Z,1.60
2019-05-09T11:35:30.276Z,1.50
2019-05-09T11:36:30.265Z,1.50
2019-05-09T11:37:30.251Z,1.60
2019-05-09T11:38:36.189Z,1.50
2019-05-09T11:39:36.596Z,1.50
2019-05-09T11:40:31.233Z,1.70
2019-05-09T11:41:30.495Z,1.70
2019-05-09T11:42:33.269Z,1.40
2019-05-09T11:43:30.180Z,1.40
2019-05-09T11:44:30.174Z,1.60
2019-05-09T11:45:30.184Z,1.50
2019-05-09T11:46:30.235Z,1.60
2019-05-09T11:47:39.466Z,1.40
2019-05-09T11:48:31.123Z,1.50
2019-05-09T11:49:30.119Z,1.20
2019-05-09T11:50:30.120Z,1.40
2019-05-09T11:51:43.179Z,1.50
2019-05-09T11:52:30.082Z,1.50
2019-05-09T11:53:30.102Z,1.50
2019-05-09T11:54:30.062Z,1.50
2019-05-09T11:55:36.013Z,1.60
2019-05-09T11:56:31.045Z,1.40
2019-05-09T11:57:31.472Z,1.30
2019-05-09T11:58:30.042Z,1.30
2019-05-09T11:59:30.009Z,1.60
2019-05-09T12:00:29.995Z,1.30
2019-05-09T12:01:29.992Z,1.60
2019-05-09T12:02:30.118Z,1.10
2019-05-09T12:03:30.076Z,1.60
2019-05-09T12:04:29.957Z,1.60
2019-05-09T12:05:29.941Z,1.40
2019-05-09T12:06:29.925Z,1.40
2019-05-09T12:07:29.921Z,1.50
2019-05-09T12:08:29.904Z,1.30
2019-05-09T12:09:29.936Z,1.30
2019-05-09T12:10:29.885Z,1.50
2019-05-09T12:11:29.870Z,1.60
2019-05-09T12:12:29.870Z,1.30
2019-05-09T12:13:29.868Z,0.90
2019-05-09T12:14:29.843Z,1.60
2019-05-09T12:15:29.868Z,1.60
2019-05-09T12:16:29.816Z,1.50
2019-05-09T12:17:49.230Z,1.20
2019-05-09T12:18:30.802Z,1.50
2019-05-09T12:19:29.802Z,1.50
2019-05-09T12:20:29.794Z,1.60
2019-05-09T12:21:29.773Z,1.50
2019-05-09T12:22:41.937Z,1.40
2019-05-09T12:23:29.739Z,1.60
2019-05-09T12:24:29.792Z,1.60
2019-05-09T12:25:29.732Z,1.50
2019-05-09T12:26:29.703Z,1.70
2019-05-09T12:27:29.693Z,1.30
2019-05-09T12:28:29.682Z,1.40
2019-05-09T12:29:29.681Z,1.50
2019-05-09T12:30:29.692Z,1.60
2019-05-09T12:31:29.653Z,1.40
2019-05-09T12:32:29.641Z,1.50
2019-05-09T12:33:33.054Z,1.60
2019-05-09T12:34:29.617Z,1.70
2019-05-09T12:35:29.602Z,1.50
2019-05-09T12:36:29.634Z,1.30
2019-05-09T12:37:29.616Z,1.20
2019-05-09T12:38:29.577Z,1.50
2019-05-09T12:39:29.567Z,1.20
2019-05-09T12:40:29.568Z,1.40
2019-05-09T12:41:31.615Z,1.40
2019-05-09T12:42:29.681Z,1.60
2019-05-09T12:43:29.519Z,1.40
2019-05-09T12:44:29.508Z,1.60
2019-05-09T12:45:29.510Z,1.40
2019-05-09T12:46:29.485Z,1.60
2019-05-09T12:47:29.519Z,1.50
2019-05-09T12:48:29.466Z,1.40
2019-05-09T12:49:29.451Z,1.60
2019-05-09T12:50:29.548Z,1.50
2019-05-09T12:51:29.426Z,1.30
2019-05-09T12:52:29.419Z,1.30
2019-05-09T12:53:42.238Z,1.50
2019-05-09T12:54:29.397Z,1.30
2019-05-09T12:55:29.383Z,1.40
2019-05-09T12:56:29.404Z,1.50
2019-05-09T12:57:29.360Z,1.30
2019-05-09T12:58:29.364Z,1.50
2019-05-09T12:59:44.335Z,1.30
2019-05-09T13:00:30.347Z,1.20
2019-05-09T13:01:29.328Z,1.40
2019-05-09T13:02:29.433Z,1.50
2019-05-09T13:03:29.299Z,1.20
2019-05-09T13:04:29.295Z,1.40
2019-05-09T13:05:29.277Z,1.20
2019-05-09T13:06:29.915Z,1.10
2019-05-09T13:07:29.841Z,1.60
2019-05-09T13:08:29.251Z,1.40
2019-05-09T13:09:29.278Z,1.10
2019-05-09T13:10:29.216Z,1.00
2019-05-09T13:11:29.723Z,1.30
2019-05-09T13:12:29.320Z,1.50
2019-05-09T13:13:32.235Z,1.20
2019-05-09T13:14:29.183Z,1.60
2019-05-09T13:15:31.055Z,1.50
2019-05-09T13:16:44.035Z,1.50
2019-05-09T13:17:30.141Z,1.30
2019-05-09T13:18:29.729Z,1.50
2019-05-09T13:19:29.134Z,1.40
2019-05-09T13:20:29.114Z,1.20